sensor_id;sensor_type;location;lat;lon;timestamp;P1;durP1;ratioP1;P2;durP2;ratioP2
17510;SDS011;8873;48.818;9.422;2022-12-15T00:02:40;82.57;;;30.37;;
17510;SDS011;8873;48.818;9.422;2022-12-15T00:05:30;78.83;;;27.33;;
17510;SDS011;8873;48.818;9.422;2022-12-15T00:08:16;82.37;;;29.97;;
17510;SDS011;8873;48.818;9.422;2022-12-15T00:11:02;77.23;;;27.47;;
17510;SDS011;8873;48.818;9.422;2022-12-15T00:13:49;81.43;;;28.03;;
17510;SDS011;8873;48.818;9.422;2022-12-15T00:16:44;80.70;;;28.60;;
17510;SDS011;8873;48.818;9.422;2022-12-15T00:19:29;81.70;;;29.70;;
17510;SDS011;8873;48.818;9.422;2022-12-15T00:22:15;77.87;;;27.87;;
17510;SDS011;8873;48.818;9.422;2022-12-15T00:25:05;86.93;;;29.77;;
17510;SDS011;8873;48.818;9.422;2022-12-15T00:27:58;79.10;;;28.00;;
17510;SDS011;8873;48.818;9.422;2022-12-15T00:30:50;74.50;;;28.40;;
17510;SDS011;8873;48.818;9.422;2022-12-15T00:33:43;74.93;;;27.17;;
17510;SDS011;8873;48.818;9.422;2022-12-15T00:36:31;80.20;;;29.57;;
17510;SDS011;8873;48.818;9.422;2022-12-15T00:39:17;79.03;;;27.97;;
17510;SDS011;8873;48.818;9.422;2022-12-15T00:41:46;85.47;;;29.23;;
17510;SDS011;8873;48.818;9.422;2022-12-15T00:44:15;90.83;;;31.30;;
17510;SDS011;8873;48.818;9.422;2022-12-15T00:46:46;80.03;;;29.10;;
17510;SDS011;8873;48.818;9.422;2022-12-15T00:49:25;87.23;;;30.80;;
17510;SDS011;8873;48.818;9.422;2022-12-15T00:52:13;78.97;;;29.53;;
17510;SDS011;8873;48.818;9.422;2022-12-15T00:55:22;70.77;;;26.53;;
17510;SDS011;8873;48.818;9.422;2022-12-15T00:58:07;87.07;;;29.53;;
17510;SDS011;8873;48.818;9.422;2022-12-15T01:00:53;83.47;;;28.03;;
17510;SDS011;8873;48.818;9.422;2022-12-15T01:04:05;86.20;;;28.23;;
17510;SDS011;8873;48.818;9.422;2022-12-15T01:06:56;79.67;;;27.37;;
17510;SDS011;8873;48.818;9.422;2022-12-15T01:09:42;80.07;;;27.10;;
17510;SDS011;8873;48.818;9.422;2022-12-15T01:12:30;82.43;;;29.70;;
17510;SDS011;8873;48.818;9.422;2022-12-15T01:15:17;86.17;;;28.07;;
17510;SDS011;8873;48.818;9.422;2022-12-15T01:18:11;78.27;;;27.47;;
17510;SDS011;8873;48.818;9.422;2022-12-15T01:20:58;89.40;;;30.57;;
17510;SDS011;8873;48.818;9.422;2022-12-15T01:23:30;80.07;;;28.60;;
17510;SDS011;8873;48.818;9.422;2022-12-15T01:26:09;85.10;;;28.43;;
17510;SDS011;8873;48.818;9.422;2022-12-15T01:28:40;84.83;;;28.37;;
17510;SDS011;8873;48.818;9.422;2022-12-15T01:31:12;79.03;;;28.60;;
17510;SDS011;8873;48.818;9.422;2022-12-15T01:33:45;82.27;;;29.63;;
17510;SDS011;8873;48.818;9.422;2022-12-15T01:36:15;82.60;;;28.07;;
17510;SDS011;8873;48.818;9.422;2022-12-15T01:38:46;83.33;;;29.93;;
17510;SDS011;8873;48.818;9.422;2022-12-15T01:41:20;105.83;;;38.70;;
17510;SDS011;8873;48.818;9.422;2022-12-15T01:43:48;80.43;;;29.20;;
17510;SDS011;8873;48.818;9.422;2022-12-15T01:46:17;81.37;;;29.57;;
17510;SDS011;8873;48.818;9.422;2022-12-15T01:48:50;91.50;;;30.33;;
17510;SDS011;8873;48.818;9.422;2022-12-15T01:51:23;83.57;;;29.37;;
17510;SDS011;8873;48.818;9.422;2022-12-15T01:53:54;83.50;;;29.53;;
17510;SDS011;8873;48.818;9.422;2022-12-15T01:56:23;84.07;;;30.23;;
17510;SDS011;8873;48.818;9.422;2022-12-15T01:58:56;81.67;;;28.57;;
17510;SDS011;8873;48.818;9.422;2022-12-15T02:01:26;102.13;;;34.27;;
17510;SDS011;8873;48.818;9.422;2022-12-15T02:03:54;91.40;;;30.50;;
17510;SDS011;8873;48.818;9.422;2022-12-15T02:06:22;80.93;;;28.63;;
17510;SDS011;8873;48.818;9.422;2022-12-15T02:08:51;84.63;;;29.83;;
17510;SDS011;8873;48.818;9.422;2022-12-15T02:14:11;79.20;;;28.70;;
17510;SDS011;8873;48.818;9.422;2022-12-15T02:16:45;89.07;;;28.73;;
17510;SDS011;8873;48.818;9.422;2022-12-15T02:19:21;83.47;;;30.33;;
17510;SDS011;8873;48.818;9.422;2022-12-15T02:21:55;83.87;;;27.63;;
17510;SDS011;8873;48.818;9.422;2022-12-15T02:24:31;78.33;;;28.40;;
17510;SDS011;8873;48.818;9.422;2022-12-15T02:27:20;79.13;;;28.97;;
17510;SDS011;8873;48.818;9.422;2022-12-15T02:30:06;82.10;;;29.37;;
17510;SDS011;8873;48.818;9.422;2022-12-15T02:32:35;74.73;;;25.93;;
17510;SDS011;8873;48.818;9.422;2022-12-15T02:35:04;76.97;;;27.20;;
17510;SDS011;8873;48.818;9.422;2022-12-15T02:37:33;82.70;;;28.87;;
17510;SDS011;8873;48.818;9.422;2022-12-15T02:40:02;77.03;;;27.67;;
17510;SDS011;8873;48.818;9.422;2022-12-15T02:42:29;87.50;;;30.10;;
17510;SDS011;8873;48.818;9.422;2022-12-15T02:44:58;83.17;;;28.33;;
17510;SDS011;8873;48.818;9.422;2022-12-15T02:47:32;79.33;;;27.57;;
17510;SDS011;8873;48.818;9.422;2022-12-15T02:50:21;81.07;;;27.53;;
17510;SDS011;8873;48.818;9.422;2022-12-15T02:53:05;80.07;;;26.37;;
17510;SDS011;8873;48.818;9.422;2022-12-15T02:55:37;80.73;;;27.17;;
17510;SDS011;8873;48.818;9.422;2022-12-15T02:58:10;74.83;;;27.07;;
17510;SDS011;8873;48.818;9.422;2022-12-15T03:00:40;74.10;;;27.23;;
17510;SDS011;8873;48.818;9.422;2022-12-15T03:03:10;81.60;;;27.03;;
17510;SDS011;8873;48.818;9.422;2022-12-15T03:05:40;79.80;;;28.27;;
17510;SDS011;8873;48.818;9.422;2022-12-15T03:08:07;76.97;;;27.37;;
17510;SDS011;8873;48.818;9.422;2022-12-15T03:10:35;82.30;;;26.67;;
17510;SDS011;8873;48.818;9.422;2022-12-15T03:13:03;87.63;;;29.23;;
17510;SDS011;8873;48.818;9.422;2022-12-15T03:15:30;70.37;;;26.00;;
17510;SDS011;8873;48.818;9.422;2022-12-15T03:18:01;75.43;;;26.83;;
17510;SDS011;8873;48.818;9.422;2022-12-15T03:20:30;82.50;;;27.47;;
17510;SDS011;8873;48.818;9.422;2022-12-15T03:22:57;78.07;;;26.50;;
17510;SDS011;8873;48.818;9.422;2022-12-15T03:25:25;80.87;;;26.03;;
17510;SDS011;8873;48.818;9.422;2022-12-15T03:27:52;70.87;;;25.60;;
17510;SDS011;8873;48.818;9.422;2022-12-15T03:30:20;70.20;;;25.47;;
17510;SDS011;8873;48.818;9.422;2022-12-15T03:32:47;73.83;;;26.47;;
17510;SDS011;8873;48.818;9.422;2022-12-15T03:35:15;69.00;;;26.20;;
17510;SDS011;8873;48.818;9.422;2022-12-15T03:37:44;73.60;;;26.77;;
17510;SDS011;8873;48.818;9.422;2022-12-15T03:40:14;73.90;;;25.83;;
17510;SDS011;8873;48.818;9.422;2022-12-15T03:42:42;68.97;;;25.47;;
17510;SDS011;8873;48.818;9.422;2022-12-15T03:45:16;71.53;;;25.53;;
17510;SDS011;8873;48.818;9.422;2022-12-15T03:47:44;70.50;;;26.37;;
17510;SDS011;8873;48.818;9.422;2022-12-15T03:50:12;70.43;;;25.73;;
17510;SDS011;8873;48.818;9.422;2022-12-15T03:52:40;69.27;;;24.03;;
17510;SDS011;8873;48.818;9.422;2022-12-15T03:55:10;74.33;;;25.97;;
17510;SDS011;8873;48.818;9.422;2022-12-15T03:57:37;70.63;;;27.13;;
17510;SDS011;8873;48.818;9.422;2022-12-15T04:00:05;72.90;;;24.70;;
17510;SDS011;8873;48.818;9.422;2022-12-15T04:02:33;66.07;;;23.93;;
17510;SDS011;8873;48.818;9.422;2022-12-15T04:05:01;75.07;;;25.60;;
17510;SDS011;8873;48.818;9.422;2022-12-15T04:07:28;75.37;;;26.30;;
17510;SDS011;8873;48.818;9.422;2022-12-15T04:09:56;72.50;;;25.40;;
17510;SDS011;8873;48.818;9.422;2022-12-15T04:12:25;72.07;;;24.80;;
17510;SDS011;8873;48.818;9.422;2022-12-15T04:14:52;69.93;;;25.00;;
17510;SDS011;8873;48.818;9.422;2022-12-15T04:17:20;63.07;;;25.37;;
17510;SDS011;8873;48.818;9.422;2022-12-15T04:19:47;70.07;;;25.90;;
17510;SDS011;8873;48.818;9.422;2022-12-15T04:22:32;64.10;;;24.80;;
17510;SDS011;8873;48.818;9.422;2022-12-15T04:25:00;69.97;;;25.40;;
17510;SDS011;8873;48.818;9.422;2022-12-15T04:27:46;64.43;;;24.40;;
17510;SDS011;8873;48.818;9.422;2022-12-15T04:30:31;66.47;;;23.47;;
17510;SDS011;8873;48.818;9.422;2022-12-15T04:33:17;72.17;;;25.50;;
17510;SDS011;8873;48.818;9.422;2022-12-15T04:36:04;67.93;;;24.87;;
17510;SDS011;8873;48.818;9.422;2022-12-15T04:38:49;72.13;;;26.10;;
17510;SDS011;8873;48.818;9.422;2022-12-15T04:41:34;70.30;;;24.13;;
17510;SDS011;8873;48.818;9.422;2022-12-15T04:44:20;71.00;;;24.73;;
17510;SDS011;8873;48.818;9.422;2022-12-15T04:47:06;74.73;;;25.80;;
17510;SDS011;8873;48.818;9.422;2022-12-15T04:49:51;76.50;;;25.27;;
17510;SDS011;8873;48.818;9.422;2022-12-15T04:52:36;79.43;;;26.80;;
17510;SDS011;8873;48.818;9.422;2022-12-15T04:55:21;70.40;;;25.43;;
17510;SDS011;8873;48.818;9.422;2022-12-15T04:58:06;73.67;;;25.57;;
17510;SDS011;8873;48.818;9.422;2022-12-15T05:00:53;68.60;;;27.80;;
17510;SDS011;8873;48.818;9.422;2022-12-15T05:03:38;69.20;;;24.97;;
17510;SDS011;8873;48.818;9.422;2022-12-15T05:06:23;71.63;;;25.60;;
17510;SDS011;8873;48.818;9.422;2022-12-15T05:09:08;71.57;;;25.90;;
17510;SDS011;8873;48.818;9.422;2022-12-15T05:11:53;78.13;;;26.87;;
17510;SDS011;8873;48.818;9.422;2022-12-15T05:14:38;81.83;;;26.80;;
17510;SDS011;8873;48.818;9.422;2022-12-15T05:17:25;66.63;;;25.17;;
17510;SDS011;8873;48.818;9.422;2022-12-15T05:20:10;71.00;;;24.07;;
17510;SDS011;8873;48.818;9.422;2022-12-15T05:22:55;71.27;;;25.33;;
17510;SDS011;8873;48.818;9.422;2022-12-15T05:25:40;67.60;;;24.73;;
17510;SDS011;8873;48.818;9.422;2022-12-15T05:28:25;76.00;;;25.63;;
17510;SDS011;8873;48.818;9.422;2022-12-15T05:31:10;81.90;;;27.20;;
17510;SDS011;8873;48.818;9.422;2022-12-15T05:33:56;88.17;;;25.97;;
17510;SDS011;8873;48.818;9.422;2022-12-15T05:36:30;73.37;;;25.63;;
17510;SDS011;8873;48.818;9.422;2022-12-15T05:38:58;69.70;;;25.23;;
17510;SDS011;8873;48.818;9.422;2022-12-15T05:41:25;77.10;;;25.63;;
17510;SDS011;8873;48.818;9.422;2022-12-15T05:43:53;83.30;;;26.40;;
17510;SDS011;8873;48.818;9.422;2022-12-15T05:46:20;65.67;;;25.40;;
17510;SDS011;8873;48.818;9.422;2022-12-15T05:48:48;72.60;;;23.97;;
17510;SDS011;8873;48.818;9.422;2022-12-15T05:51:17;78.03;;;26.10;;
17510;SDS011;8873;48.818;9.422;2022-12-15T05:53:44;78.20;;;27.60;;
17510;SDS011;8873;48.818;9.422;2022-12-15T05:56:13;68.33;;;24.63;;
17510;SDS011;8873;48.818;9.422;2022-12-15T05:58:40;78.77;;;28.03;;
17510;SDS011;8873;48.818;9.422;2022-12-15T06:01:11;87.97;;;28.30;;
17510;SDS011;8873;48.818;9.422;2022-12-15T06:03:39;91.80;;;30.97;;
17510;SDS011;8873;48.818;9.422;2022-12-15T06:06:07;91.47;;;29.77;;
17510;SDS011;8873;48.818;9.422;2022-12-15T06:08:37;90.70;;;30.57;;
17510;SDS011;8873;48.818;9.422;2022-12-15T06:11:05;93.00;;;29.07;;
17510;SDS011;8873;48.818;9.422;2022-12-15T06:13:33;86.53;;;29.23;;
17510;SDS011;8873;48.818;9.422;2022-12-15T06:16:02;76.30;;;26.57;;
17510;SDS011;8873;48.818;9.422;2022-12-15T06:18:33;65.33;;;25.33;;
17510;SDS011;8873;48.818;9.422;2022-12-15T06:21:02;78.17;;;27.23;;
17510;SDS011;8873;48.818;9.422;2022-12-15T06:23:30;70.63;;;25.30;;
17510;SDS011;8873;48.818;9.422;2022-12-15T06:26:06;71.90;;;24.83;;
17510;SDS011;8873;48.818;9.422;2022-12-15T06:28:34;95.20;;;30.37;;
17510;SDS011;8873;48.818;9.422;2022-12-15T06:31:02;100.77;;;30.10;;
17510;SDS011;8873;48.818;9.422;2022-12-15T06:33:30;83.47;;;27.97;;
17510;SDS011;8873;48.818;9.422;2022-12-15T06:36:00;88.27;;;27.73;;
17510;SDS011;8873;48.818;9.422;2022-12-15T06:38:28;91.00;;;27.80;;
17510;SDS011;8873;48.818;9.422;2022-12-15T06:40:56;80.40;;;26.23;;
17510;SDS011;8873;48.818;9.422;2022-12-15T06:43:25;101.70;;;30.90;;
17510;SDS011;8873;48.818;9.422;2022-12-15T06:45:54;95.80;;;33.27;;
17510;SDS011;8873;48.818;9.422;2022-12-15T06:48:22;86.77;;;29.57;;
17510;SDS011;8873;48.818;9.422;2022-12-15T06:50:50;87.93;;;29.73;;
17510;SDS011;8873;48.818;9.422;2022-12-15T06:53:18;103.43;;;30.90;;
17510;SDS011;8873;48.818;9.422;2022-12-15T06:55:47;83.63;;;25.83;;
17510;SDS011;8873;48.818;9.422;2022-12-15T06:58:14;88.73;;;27.20;;
17510;SDS011;8873;48.818;9.422;2022-12-15T07:00:44;64.17;;;23.17;;
17510;SDS011;8873;48.818;9.422;2022-12-15T07:03:13;68.20;;;22.47;;
17510;SDS011;8873;48.818;9.422;2022-12-15T07:05:41;77.43;;;23.73;;
17510;SDS011;8873;48.818;9.422;2022-12-15T07:08:09;65.77;;;20.90;;
17510;SDS011;8873;48.818;9.422;2022-12-15T07:10:37;70.27;;;22.77;;
17510;SDS011;8873;48.818;9.422;2022-12-15T07:13:07;69.33;;;22.00;;
17510;SDS011;8873;48.818;9.422;2022-12-15T07:15:35;74.07;;;24.13;;
17510;SDS011;8873;48.818;9.422;2022-12-15T07:18:05;74.27;;;23.97;;
17510;SDS011;8873;48.818;9.422;2022-12-15T07:20:32;75.03;;;25.17;;
17510;SDS011;8873;48.818;9.422;2022-12-15T07:23:00;69.17;;;24.60;;
17510;SDS011;8873;48.818;9.422;2022-12-15T07:25:34;71.67;;;23.23;;
17510;SDS011;8873;48.818;9.422;2022-12-15T07:28:01;72.50;;;24.70;;
17510;SDS011;8873;48.818;9.422;2022-12-15T07:30:29;71.17;;;24.40;;
17510;SDS011;8873;48.818;9.422;2022-12-15T07:33:05;73.17;;;23.23;;
17510;SDS011;8873;48.818;9.422;2022-12-15T07:35:32;62.80;;;22.93;;
17510;SDS011;8873;48.818;9.422;2022-12-15T07:38:04;68.70;;;22.87;;
17510;SDS011;8873;48.818;9.422;2022-12-15T07:40:32;67.37;;;23.10;;
17510;SDS011;8873;48.818;9.422;2022-12-15T07:42:59;71.63;;;23.80;;
17510;SDS011;8873;48.818;9.422;2022-12-15T07:45:27;73.23;;;22.77;;
17510;SDS011;8873;48.818;9.422;2022-12-15T07:47:55;74.53;;;23.80;;
17510;SDS011;8873;48.818;9.422;2022-12-15T07:50:23;75.20;;;23.17;;
17510;SDS011;8873;48.818;9.422;2022-12-15T07:52:54;80.47;;;24.27;;
17510;SDS011;8873;48.818;9.422;2022-12-15T07:55:21;73.40;;;22.03;;
17510;SDS011;8873;48.818;9.422;2022-12-15T07:58:09;73.90;;;23.27;;
17510;SDS011;8873;48.818;9.422;2022-12-15T08:00:36;76.20;;;23.40;;
17510;SDS011;8873;48.818;9.422;2022-12-15T08:03:10;75.20;;;22.93;;
17510;SDS011;8873;48.818;9.422;2022-12-15T08:05:39;69.93;;;23.57;;
17510;SDS011;8873;48.818;9.422;2022-12-15T08:08:07;62.93;;;22.77;;
17510;SDS011;8873;48.818;9.422;2022-12-15T08:10:40;75.77;;;24.03;;
17510;SDS011;8873;48.818;9.422;2022-12-15T08:13:08;68.53;;;23.00;;
17510;SDS011;8873;48.818;9.422;2022-12-15T08:15:35;68.43;;;20.83;;
17510;SDS011;8873;48.818;9.422;2022-12-15T08:18:03;77.70;;;23.43;;
17510;SDS011;8873;48.818;9.422;2022-12-15T08:20:31;68.73;;;22.30;;
17510;SDS011;8873;48.818;9.422;2022-12-15T08:23:00;70.87;;;24.13;;
17510;SDS011;8873;48.818;9.422;2022-12-15T08:25:27;59.53;;;20.97;;
17510;SDS011;8873;48.818;9.422;2022-12-15T08:27:55;64.83;;;21.93;;
17510;SDS011;8873;48.818;9.422;2022-12-15T08:30:23;66.23;;;21.80;;
17510;SDS011;8873;48.818;9.422;2022-12-15T08:32:50;67.97;;;22.13;;
17510;SDS011;8873;48.818;9.422;2022-12-15T08:35:18;65.33;;;21.77;;
17510;SDS011;8873;48.818;9.422;2022-12-15T08:38:07;65.97;;;22.73;;
17510;SDS011;8873;48.818;9.422;2022-12-15T08:40:35;69.03;;;21.40;;
17510;SDS011;8873;48.818;9.422;2022-12-15T08:43:02;69.20;;;23.03;;
17510;SDS011;8873;48.818;9.422;2022-12-15T08:45:29;66.50;;;21.80;;
17510;SDS011;8873;48.818;9.422;2022-12-15T08:47:57;65.30;;;22.63;;
17510;SDS011;8873;48.818;9.422;2022-12-15T08:50:25;67.57;;;23.10;;
17510;SDS011;8873;48.818;9.422;2022-12-15T08:52:53;65.60;;;21.10;;
17510;SDS011;8873;48.818;9.422;2022-12-15T08:55:41;60.67;;;20.33;;
17510;SDS011;8873;48.818;9.422;2022-12-15T08:58:09;59.57;;;22.30;;
17510;SDS011;8873;48.818;9.422;2022-12-15T09:00:36;61.53;;;20.77;;
17510;SDS011;8873;48.818;9.422;2022-12-15T09:03:04;58.40;;;21.17;;
17510;SDS011;8873;48.818;9.422;2022-12-15T09:05:33;70.33;;;24.67;;
17510;SDS011;8873;48.818;9.422;2022-12-15T09:08:00;66.83;;;22.20;;
17510;SDS011;8873;48.818;9.422;2022-12-15T09:10:32;60.83;;;22.53;;
17510;SDS011;8873;48.818;9.422;2022-12-15T09:13:01;64.60;;;22.33;;
17510;SDS011;8873;48.818;9.422;2022-12-15T09:15:28;66.83;;;23.43;;
17510;SDS011;8873;48.818;9.422;2022-12-15T09:18:16;63.87;;;22.07;;
17510;SDS011;8873;48.818;9.422;2022-12-15T09:20:43;61.60;;;21.43;;
17510;SDS011;8873;48.818;9.422;2022-12-15T09:23:11;72.07;;;23.80;;
17510;SDS011;8873;48.818;9.422;2022-12-15T09:25:38;66.40;;;22.73;;
17510;SDS011;8873;48.818;9.422;2022-12-15T09:28:07;55.97;;;21.63;;
17510;SDS011;8873;48.818;9.422;2022-12-15T09:30:34;61.40;;;21.33;;
17510;SDS011;8873;48.818;9.422;2022-12-15T09:33:02;58.43;;;21.10;;
17510;SDS011;8873;48.818;9.422;2022-12-15T09:35:30;58.43;;;21.93;;
17510;SDS011;8873;48.818;9.422;2022-12-15T09:37:57;63.63;;;22.20;;
17510;SDS011;8873;48.818;9.422;2022-12-15T09:40:25;58.47;;;21.80;;
17510;SDS011;8873;48.818;9.422;2022-12-15T09:42:54;60.50;;;22.43;;
17510;SDS011;8873;48.818;9.422;2022-12-15T09:45:44;59.00;;;21.63;;
17510;SDS011;8873;48.818;9.422;2022-12-15T09:48:15;62.67;;;22.93;;
17510;SDS011;8873;48.818;9.422;2022-12-15T09:50:44;66.23;;;22.27;;
17510;SDS011;8873;48.818;9.422;2022-12-15T09:53:13;59.33;;;20.83;;
17510;SDS011;8873;48.818;9.422;2022-12-15T09:56:03;50.67;;;20.07;;
17510;SDS011;8873;48.818;9.422;2022-12-15T09:58:35;61.77;;;21.27;;
17510;SDS011;8873;48.818;9.422;2022-12-15T10:01:09;61.20;;;21.60;;
17510;SDS011;8873;48.818;9.422;2022-12-15T10:03:41;54.87;;;21.03;;
17510;SDS011;8873;48.818;9.422;2022-12-15T10:06:11;56.03;;;21.87;;
17510;SDS011;8873;48.818;9.422;2022-12-15T10:08:48;58.50;;;20.93;;
17510;SDS011;8873;48.818;9.422;2022-12-15T10:11:18;56.07;;;20.40;;
17510;SDS011;8873;48.818;9.422;2022-12-15T10:13:47;62.23;;;21.73;;
17510;SDS011;8873;48.818;9.422;2022-12-15T10:16:20;57.97;;;20.80;;
17510;SDS011;8873;48.818;9.422;2022-12-15T10:18:51;63.07;;;22.10;;
17510;SDS011;8873;48.818;9.422;2022-12-15T10:21:27;64.07;;;23.63;;
17510;SDS011;8873;48.818;9.422;2022-12-15T10:23:56;71.10;;;22.63;;
17510;SDS011;8873;48.818;9.422;2022-12-15T10:26:29;65.60;;;21.30;;
17510;SDS011;8873;48.818;9.422;2022-12-15T10:29:02;52.53;;;20.80;;
17510;SDS011;8873;48.818;9.422;2022-12-15T10:31:35;58.83;;;20.20;;
17510;SDS011;8873;48.818;9.422;2022-12-15T10:34:08;60.70;;;21.47;;
17510;SDS011;8873;48.818;9.422;2022-12-15T10:36:36;64.17;;;22.47;;
17510;SDS011;8873;48.818;9.422;2022-12-15T10:39:03;60.50;;;21.60;;
17510;SDS011;8873;48.818;9.422;2022-12-15T10:41:31;62.07;;;22.03;;
17510;SDS011;8873;48.818;9.422;2022-12-15T10:43:59;58.43;;;22.23;;
17510;SDS011;8873;48.818;9.422;2022-12-15T10:46:28;65.77;;;22.30;;
17510;SDS011;8873;48.818;9.422;2022-12-15T10:48:59;58.90;;;20.17;;
17510;SDS011;8873;48.818;9.422;2022-12-15T10:51:28;62.60;;;21.90;;
17510;SDS011;8873;48.818;9.422;2022-12-15T10:54:04;61.60;;;21.97;;
17510;SDS011;8873;48.818;9.422;2022-12-15T10:56:32;55.10;;;20.40;;
17510;SDS011;8873;48.818;9.422;2022-12-15T10:59:01;54.37;;;21.20;;
17510;SDS011;8873;48.818;9.422;2022-12-15T11:01:29;53.40;;;19.83;;
17510;SDS011;8873;48.818;9.422;2022-12-15T11:03:59;58.70;;;19.53;;
17510;SDS011;8873;48.818;9.422;2022-12-15T11:06:28;50.93;;;20.00;;
17510;SDS011;8873;48.818;9.422;2022-12-15T11:09:05;53.23;;;19.60;;
17510;SDS011;8873;48.818;9.422;2022-12-15T11:11:33;47.53;;;18.20;;
17510;SDS011;8873;48.818;9.422;2022-12-15T11:14:20;47.87;;;19.20;;
17510;SDS011;8873;48.818;9.422;2022-12-15T11:16:52;54.57;;;21.10;;
17510;SDS011;8873;48.818;9.422;2022-12-15T11:19:26;54.87;;;20.83;;
17510;SDS011;8873;48.818;9.422;2022-12-15T11:21:58;58.57;;;21.00;;
17510;SDS011;8873;48.818;9.422;2022-12-15T11:24:28;59.90;;;21.83;;
17510;SDS011;8873;48.818;9.422;2022-12-15T11:27:00;56.27;;;21.23;;
17510;SDS011;8873;48.818;9.422;2022-12-15T11:29:32;58.63;;;21.43;;
17510;SDS011;8873;48.818;9.422;2022-12-15T11:32:04;58.00;;;21.47;;
17510;SDS011;8873;48.818;9.422;2022-12-15T11:34:35;55.00;;;22.03;;
17510;SDS011;8873;48.818;9.422;2022-12-15T11:39:56;62.87;;;21.70;;
17510;SDS011;8873;48.818;9.422;2022-12-15T11:42:29;51.73;;;20.67;;
17510;SDS011;8873;48.818;9.422;2022-12-15T11:45:01;57.33;;;22.13;;
17510;SDS011;8873;48.818;9.422;2022-12-15T11:47:33;58.67;;;21.23;;
17510;SDS011;8873;48.818;9.422;2022-12-15T11:50:10;57.40;;;21.63;;
17510;SDS011;8873;48.818;9.422;2022-12-15T11:52:45;66.10;;;22.70;;
17510;SDS011;8873;48.818;9.422;2022-12-15T11:55:19;57.03;;;21.93;;
17510;SDS011;8873;48.818;9.422;2022-12-15T11:58:01;59.67;;;21.73;;
17510;SDS011;8873;48.818;9.422;2022-12-15T12:00:33;61.70;;;22.67;;
17510;SDS011;8873;48.818;9.422;2022-12-15T12:03:06;59.73;;;21.00;;
17510;SDS011;8873;48.818;9.422;2022-12-15T12:05:43;61.70;;;22.80;;
17510;SDS011;8873;48.818;9.422;2022-12-15T12:08:17;66.27;;;23.27;;
17510;SDS011;8873;48.818;9.422;2022-12-15T12:10:51;63.73;;;22.90;;
17510;SDS011;8873;48.818;9.422;2022-12-15T12:13:25;58.67;;;22.33;;
17510;SDS011;8873;48.818;9.422;2022-12-15T12:15:56;54.87;;;20.80;;
17510;SDS011;8873;48.818;9.422;2022-12-15T12:18:27;49.80;;;20.07;;
17510;SDS011;8873;48.818;9.422;2022-12-15T12:21:01;51.87;;;19.47;;
17510;SDS011;8873;48.818;9.422;2022-12-15T12:23:33;47.23;;;18.30;;
17510;SDS011;8873;48.818;9.422;2022-12-15T12:26:04;51.47;;;19.13;;
17510;SDS011;8873;48.818;9.422;2022-12-15T12:28:34;50.33;;;18.63;;
17510;SDS011;8873;48.818;9.422;2022-12-15T12:31:09;47.23;;;17.77;;
17510;SDS011;8873;48.818;9.422;2022-12-15T12:33:44;46.87;;;18.40;;
17510;SDS011;8873;48.818;9.422;2022-12-15T12:36:15;51.30;;;19.00;;
17510;SDS011;8873;48.818;9.422;2022-12-15T12:38:44;52.80;;;18.83;;
17510;SDS011;8873;48.818;9.422;2022-12-15T12:41:17;50.10;;;18.67;;
17510;SDS011;8873;48.818;9.422;2022-12-15T12:43:48;52.30;;;19.83;;
17510;SDS011;8873;48.818;9.422;2022-12-15T12:46:18;52.33;;;19.60;;
17510;SDS011;8873;48.818;9.422;2022-12-15T12:48:49;51.50;;;19.43;;
17510;SDS011;8873;48.818;9.422;2022-12-15T12:51:21;53.13;;;19.40;;
17510;SDS011;8873;48.818;9.422;2022-12-15T12:53:49;58.87;;;20.97;;
17510;SDS011;8873;48.818;9.422;2022-12-15T12:56:34;47.90;;;19.27;;
17510;SDS011;8873;48.818;9.422;2022-12-15T12:59:04;46.27;;;18.80;;
17510;SDS011;8873;48.818;9.422;2022-12-15T13:01:34;43.57;;;17.60;;
17510;SDS011;8873;48.818;9.422;2022-12-15T13:04:36;50.10;;;18.90;;
17510;SDS011;8873;48.818;9.422;2022-12-15T13:06:57;48.90;;;18.90;;
17510;SDS011;8873;48.818;9.422;2022-12-15T13:09:35;46.53;;;18.03;;
17510;SDS011;8873;48.818;9.422;2022-12-15T13:12:03;56.60;;;18.00;;
17510;SDS011;8873;48.818;9.422;2022-12-15T13:14:51;45.33;;;16.90;;
17510;SDS011;8873;48.818;9.422;2022-12-15T13:17:25;45.80;;;18.90;;
17510;SDS011;8873;48.818;9.422;2022-12-15T13:22:54;52.40;;;19.93;;
17510;SDS011;8873;48.818;9.422;2022-12-15T13:25:35;52.53;;;20.20;;
17510;SDS011;8873;48.818;9.422;2022-12-15T13:28:15;51.60;;;19.23;;
17510;SDS011;8873;48.818;9.422;2022-12-15T13:33:43;50.77;;;19.03;;
17510;SDS011;8873;48.818;9.422;2022-12-15T13:38:57;48.43;;;18.73;;
17510;SDS011;8873;48.818;9.422;2022-12-15T13:41:25;50.40;;;18.87;;
17510;SDS011;8873;48.818;9.422;2022-12-15T13:43:53;53.33;;;19.73;;
17510;SDS011;8873;48.818;9.422;2022-12-15T13:46:22;47.27;;;18.07;;
17510;SDS011;8873;48.818;9.422;2022-12-15T13:48:54;53.17;;;20.67;;
17510;SDS011;8873;48.818;9.422;2022-12-15T13:51:30;56.73;;;19.80;;
17510;SDS011;8873;48.818;9.422;2022-12-15T13:54:02;53.90;;;20.07;;
17510;SDS011;8873;48.818;9.422;2022-12-15T13:56:39;52.87;;;19.37;;
17510;SDS011;8873;48.818;9.422;2022-12-15T13:59:11;57.83;;;20.03;;
17510;SDS011;8873;48.818;9.422;2022-12-15T14:01:47;58.07;;;19.63;;
17510;SDS011;8873;48.818;9.422;2022-12-15T14:04:16;51.23;;;19.10;;
17510;SDS011;8873;48.818;9.422;2022-12-15T14:06:45;52.03;;;18.27;;
17510;SDS011;8873;48.818;9.422;2022-12-15T14:09:18;52.50;;;20.30;;
17510;SDS011;8873;48.818;9.422;2022-12-15T14:11:46;52.90;;;19.13;;
17510;SDS011;8873;48.818;9.422;2022-12-15T14:14:21;57.07;;;19.30;;
17510;SDS011;8873;48.818;9.422;2022-12-15T14:16:53;49.10;;;18.80;;
17510;SDS011;8873;48.818;9.422;2022-12-15T14:19:21;55.73;;;20.03;;
17510;SDS011;8873;48.818;9.422;2022-12-15T14:21:49;50.63;;;19.90;;
17510;SDS011;8873;48.818;9.422;2022-12-15T14:24:28;53.37;;;20.70;;
17510;SDS011;8873;48.818;9.422;2022-12-15T14:27:05;55.90;;;19.23;;
17510;SDS011;8873;48.818;9.422;2022-12-15T14:29:33;50.17;;;19.83;;
17510;SDS011;8873;48.818;9.422;2022-12-15T14:32:00;58.40;;;20.23;;
17510;SDS011;8873;48.818;9.422;2022-12-15T14:34:29;51.80;;;19.33;;
17510;SDS011;8873;48.818;9.422;2022-12-15T14:36:58;59.67;;;19.93;;
17510;SDS011;8873;48.818;9.422;2022-12-15T14:39:30;54.93;;;20.60;;
17510;SDS011;8873;48.818;9.422;2022-12-15T14:41:59;48.97;;;19.70;;
17510;SDS011;8873;48.818;9.422;2022-12-15T14:44:29;60.30;;;19.90;;
17510;SDS011;8873;48.818;9.422;2022-12-15T14:47:04;52.43;;;19.87;;
17510;SDS011;8873;48.818;9.422;2022-12-15T14:49:36;55.30;;;19.33;;
17510;SDS011;8873;48.818;9.422;2022-12-15T14:52:04;54.77;;;19.53;;
17510;SDS011;8873;48.818;9.422;2022-12-15T14:54:35;55.20;;;19.97;;
17510;SDS011;8873;48.818;9.422;2022-12-15T14:57:11;49.37;;;18.13;;
17510;SDS011;8873;48.818;9.422;2022-12-15T14:59:40;52.43;;;17.57;;
17510;SDS011;8873;48.818;9.422;2022-12-15T15:02:13;48.03;;;18.50;;
17510;SDS011;8873;48.818;9.422;2022-12-15T15:04:41;54.93;;;18.97;;
17510;SDS011;8873;48.818;9.422;2022-12-15T15:07:14;49.53;;;17.57;;
17510;SDS011;8873;48.818;9.422;2022-12-15T15:09:44;53.20;;;19.43;;
17510;SDS011;8873;48.818;9.422;2022-12-15T15:12:13;53.20;;;18.87;;
17510;SDS011;8873;48.818;9.422;2022-12-15T15:14:42;53.50;;;19.07;;
17510;SDS011;8873;48.818;9.422;2022-12-15T15:17:15;49.17;;;17.50;;
17510;SDS011;8873;48.818;9.422;2022-12-15T15:19:48;47.60;;;17.70;;
17510;SDS011;8873;48.818;9.422;2022-12-15T15:22:24;48.38;;;17.58;;
17510;SDS011;8873;48.818;9.422;2022-12-15T15:24:55;52.10;;;17.97;;